This is the latest recevied weather packets stored in our database for station/object WC4PEM-15. If no packets are shown the sender has not sent any weather packets the latest 10 day(s).
| Time | Temp. | Humidity | Pressure | Rain* | Wind** | Luminosity | Snow |
|---|---|---|---|---|---|---|---|
| 1777754113 | 21.67° C | 84% | 1010.8 hPa | 0 mm | - | - | - |
| 1777753813 | 21.67° C | 82% | 1010.9 hPa | 0 mm | - | - | - |
| 1777753768 | 22.78° C | 79% | 1011.3 hPa | 0 mm | - | - | - |
| 1777753513 | 22.78° C | 79% | 1011.3 hPa | 0 mm | - | - | - |
| 1777753213 | 24.44° C | 73% | 1011.4 hPa | 0 mm | - | - | - |
| 1777752913 | 26.11° C | 67% | 1011.6 hPa | 0 mm | - | - | - |
| 1777752800 | 27.78° C | 71% | 1011 hPa | 0 mm | - | - | - |
| 1777752613 | 27.78° C | 71% | 1011 hPa | 0 mm | - | - | - |
| 1777752313 | 27.78° C | 72% | 1010.5 hPa | 0 mm | - | - | - |
| 1777752013 | 27.78° C | 73% | 1010.3 hPa | 0 mm | - | - | - |
| 1777751941 | 27.78° C | 72% | 1010.6 hPa | 0 mm | - | - | - |
| 1777751713 | 27.78° C | 72% | 1010.6 hPa | 0 mm | - | - | - |
| 1777751413 | 28.33° C | 72% | 1010.5 hPa | 0 mm | - | - | - |
| 1777751272 | 28.33° C | 71% | 1010.5 hPa | 0 mm | - | - | - |
| 1777751113 | 28.33° C | 71% | 1010.5 hPa | 0 mm | - | - | - |
| 1777751020 | 28.33° C | 71% | 1010.5 hPa | 0 mm | - | - | - |
| 1777750821 | 28.33° C | 70% | 1010.5 hPa | 0 mm | - | - | - |
| 1777750813 | 28.33° C | 71% | 1010.5 hPa | 0 mm | - | - | - |
| 1777750513 | 28.33° C | 70% | 1010.5 hPa | 0 mm | - | - | - |
| 1777750213 | 28.33° C | 71% | 1010.3 hPa | 0 mm | - | - | - |
| 1777749913 | 28.33° C | 71% | 1010.4 hPa | 0 mm | - | - | - |
| 1777749613 | 28.33° C | 71% | 1010.3 hPa | 0 mm | - | - | - |
| 1777749313 | 28.33° C | 71% | 1010.4 hPa | 0 mm | - | - | - |
| 1777749231 | 28.33° C | 70% | 1010.5 hPa | 0 mm | - | - | - |
| 1777749014 | 28.33° C | 70% | 1010.5 hPa | 0 mm | - | - | - |
* Rain latest hour (hover to see other rain measurements)
** Current wind speed in m/s (hover to see current wind gust speed)